METAR Data
IDs: Format: Raw Decoded Include TAF

Data at: 2016 UTC 14 Dec 2018

KSWW 141955Z AUTO 33017G25KT 10SM CLR 11/M09 A3022 RMK AO2 T01101086
KSWW 141935Z AUTO 33020G26KT 10SM CLR 11/M08 A3023 RMK AO2 T01081080
KSWW 141915Z AUTO 34020G27KT 10SM CLR 10/M09 A3023 RMK AO2 T01031087
KSWW 141855Z AUTO 34017G25KT 10SM CLR 10/M08 A3023 RMK AO2 T01041077
KSWW 141835Z AUTO 33015G27KT 10SM CLR 10/M08 A3024 RMK AO2 T01001082
KSWW 141815Z AUTO 32020G26KT 10SM CLR 09/M09 A3025 RMK AO2 T00921089
KSWW 141755Z AUTO 34016G26KT 10SM CLR 09/M09 A3025 RMK AO2 T00861094 10086 20017
KSWW 141735Z AUTO 34018G27KT 10SM CLR 08/M09 A3026 RMK AO2 T00841095
KSWW 141715Z AUTO 33019G25KT 10SM CLR 08/M09 A3026 RMK AO2 T00771094
KSWW 141655Z AUTO 34016G23KT 10SM CLR 07/M09 A3026 RMK AO2 T00701086
KSWW 141635Z AUTO 33018G27KT 10SM CLR 06/M09 A3026 RMK AO2 T00631093
KSWW 141615Z AUTO 32016G26KT 10SM CLR 06/M09 A3026 RMK AO2 T00561094
KSWW 141555Z AUTO 32019G28KT 10SM CLR 05/M10 A3026 RMK AO2 T00501099
KSWW 141535Z AUTO 32017G25KT 10SM CLR 04/M10 A3025 RMK AO2 T00431099
KSWW 141515Z AUTO 31018G24KT 10SM CLR 04/M09 A3025 RMK AO2 T00381090
KSWW 141455Z AUTO 31015G21KT 10SM CLR 03/M09 A3024 RMK AO2 LTG DSNT E T00301087
KSWW 141435Z AUTO 31017KT 10SM CLR 02/M08 A3022 RMK AO2 T00231084
KSWW 141415Z AUTO 31013KT 10SM CLR 02/M08 A3021 RMK AO2 T00181080
KSWW 141355Z AUTO 31014G20KT 10SM CLR 02/M08 A3021 RMK AO2 T00191082
KSWW 141335Z AUTO 32014G18KT 10SM CLR 02/M08 A3020 RMK AO2 T00171081
KSWW 141315Z AUTO 33015G20KT 10SM CLR 02/M08 A3019 RMK AO2 T00181080
KSWW 141255Z AUTO 32014KT 10SM CLR 02/M08 A3018 RMK AO2 T00201080
KSWW 141235Z AUTO 32015KT 10SM CLR 02/M08 A3016 RMK AO2 T00201080
KSWW 141215Z AUTO 32015G20KT 10SM CLR 02/M08 A3016 RMK AO2 LTG DSNT E T00211081
KSWW 141155Z AUTO 32017G21KT 10SM CLR 03/M08 A3015 RMK AO2 70073 T00271083 10047 20027
KSWW 141135Z AUTO 33018G21KT 10SM CLR 03/M09 A3014 RMK AO2 T00331093
KSWW 141115Z AUTO 33023G30KT 10SM CLR 04/M10 A3013 RMK AO2 T00361096
KSWW 141055Z AUTO 33017G29KT 10SM CLR 04/M09 A3013 RMK AO2 T00351091
KSWW 141035Z AUTO 33020G29KT 10SM CLR 04/M09 A3013 RMK AO2 T00361087
KSWW 141015Z AUTO 33019G29KT 10SM CLR 04/M08 A3013 RMK AO2 T00371085
KSWW 140955Z AUTO 33017G26KT 10SM CLR 04/M08 A3013 RMK AO2 T00361078
KSWW 140935Z AUTO 33018G27KT 10SM CLR 04/M07 A3012 RMK AO2 T00371075
KSWW 140915Z AUTO 33018G29KT 10SM CLR 04/M07 A3012 RMK AO2 T00381072
KSWW 140855Z AUTO 32018G24KT 10SM CLR 04/M07 A3012 RMK AO2 T00361070
KSWW 140835Z AUTO 32018G25KT 10SM SCT033 04/M07 A3012 RMK AO2 T00371069
KSWW 140815Z AUTO 32019G29KT 10SM OVC031 04/M07 A3012 RMK AO2 T00401066
KSWW 140755Z AUTO 33020G25KT 10SM SCT031 SCT100 04/M06 A3011 RMK AO2 T00391063
KSWW 140735Z AUTO 32020G23KT 10SM CLR 04/M06 A3010 RMK AO2 T00381060
KSWW 140715Z AUTO 32017G25KT 10SM CLR 04/M06 A3010 RMK AO2 T00391056
KSWW 140655Z AUTO 32018G25KT 10SM SCT100 04/M06 A3010 RMK AO2 T00421056
KSWW 140635Z AUTO 32019G27KT 10SM SCT110 05/M05 A3010 RMK AO2 T00451055
KSWW 140615Z AUTO 32018G25KT 10SM BKN110 05/M05 A3009 RMK AO2 T00451054
KSWW 140555Z AUTO 32019G28KT 10SM SCT100 05/M05 A3009 RMK AO2 T00461054 10073 20046 401120022
KSWW 140535Z AUTO 32018G26KT 10SM CLR 05/M05 A3009 RMK AO2 T00481052
KSWW 140515Z AUTO 33020G25KT 10SM CLR 05/M05 A3009 RMK AO2 T00511051
KSWW 140455Z AUTO 32017G28KT 10SM SCT100 05/M05 A3008 RMK AO2 T00541050
KSWW 140435Z AUTO 33021G30KT 10SM BKN100 06/M05 A3007 RMK AO2 T00561046
KSWW 140415Z AUTO 33022KT 06/M04 A3007 RMK AO2 T00601045
KSWW 140355Z AUTO 33020G29KT 10SM SCT050 06/M04 A3006 RMK AO2 T00621043
KSWW 140335Z AUTO 33021G35KT 10SM BKN050 07/M04 A3005 RMK AO2 T00651039
KSWW 140315Z AUTO 32022G29KT 10SM BKN050 07/M03 A3004 RMK AO2 T00661029
KSWW 140255Z AUTO 32019G29KT 10SM BKN050 07/M02 A3004 RMK AO2 T00681025
KSWW 140235Z AUTO 32019G24KT 10SM OVC060 07/M02 A3004 RMK AO2 T00701018
KSWW 140215Z AUTO 32021G32KT 10SM OVC060 07/M02 A3004 RMK AO2 T00711017
KSWW 140155Z AUTO 33023G30KT 10SM SCT042 OVC060 07/M02 A3003 RMK AO2 T00711017
KSWW 140135Z AUTO 33020G29KT 10SM SCT037 SCT043 OVC050 07/M01 A3003 RMK AO2 T00701014
KSWW 140115Z AUTO 32017G25KT 10SM SCT034 SCT045 OVC050 07/M01 A3002 RMK AO2 T00651007
KSWW 140055Z AUTO 31012G19KT 10SM SCT024 SCT035 OVC050 06/00 A3002 RMK AO2 LTG DSNT E T00580000
KSWW 140035Z AUTO 31017G23KT 10SM SCT024 BKN033 OVC047 06/00 A3001 RMK AO2 T00600000
KSWW 140015Z AUTO 32014G24KT 10SM SCT039 OVC049 06/01 A3000 RMK AO2 T00550007
KSWW 132355Z AUTO 32016G21KT 10SM SCT022 BKN038 OVC046 05/02 A2999 RMK AO2 60063 T00500017 10050 20022
KSWW 132335Z AUTO 34018G24KT 7SM SCT024 BKN030 OVC037 05/03 A2999 RMK AO2 T00460026
KSWW 132315Z AUTO 31012G19KT 10SM SCT016 BKN029 OVC037 04/03 A2998 RMK AO2 T00400030
KSWW 132255Z AUTO 32013G24KT 4SM OVC016 04/04 A2997 RMK AO2 P0007 T00400039
KSWW 132235Z AUTO 34013G22KT 4SM BKN013 OVC018 04/04 A2996 RMK AO2 P0006 T00380038
KSWW 132215Z AUTO 32016G26KT 4SM BKN009 OVC015 03/03 A2996 RMK AO2 P0003 T00300030
KSWW 132155Z AUTO 33017G21KT 5SM BKN009 OVC013 03/03 A2995 RMK AO2 P0013 T00280028
KSWW 132135Z AUTO 35011G21KT 4SM SCT007 OVC015 02/02 A2995 RMK AO2 P0007 T00230023
KSWW 132115Z AUTO 34009G15KT 4SM OVC013 04/04 A2992 RMK AO2 LTG DSNT NE AND E P0002 T00350035
KSWW 132055Z AUTO 34009G20KT 2 1/2SM OVC009 03/03 A2992 RMK AO2 LTG DSNT NE P0017 60043 T00300030
KSWW 132035Z AUTO 32016G24KT 2 1/2SM OVC011 03/03 A2992 RMK AO2 VIS 1 1/2V5 LTG DSNT NE P0011 T00270027
KSWW 132015Z AUTO 33018G25KT 1 3/4SM OVC011 03/03 A2991 RMK AO2 P0004 T00330033
KSWW 131955Z AUTO 32019G27KT 2 1/2SM OVC011 03/03 A2991 RMK AO2 P0017 T00320032
KSWW 131935Z AUTO 34014G24KT 2 1/2SM BKN011 OVC014 03/03 A2990 RMK AO2 VIS 2V4 LTG DSNT NE P0012 T00300030
KSWW 131915Z AUTO 33015G21KT 3SM OVC011 03/03 A2989 RMK AO2 LTG DSNT NE P0004 T00340034
KSWW 131855Z AUTO 33021G29KT 2SM OVC013 04/04 A2988 RMK AO2 VIS 1 1/4V4 LTG DSNT SE P0008 T00360036
KSWW 131835Z AUTO 34017G30KT 4SM TS OVC015 04/04 A2988 RMK AO2 LTG DSNT NE AND SE P0004 T00380038
KSWW 131815Z AUTO 34018G25KT 4SM BKN013 OVC020 04/04 A2987 RMK AO2 LTG DSNT SE P0001 T00410040
KSWW 131755Z AUTO 33013G20KT 3SM OVC013 04/04 A2987 RMK AO2 P0009 60010 T00400040 10100 20038
KSWW 131735Z AUTO 35014G21KT 7SM OVC013 04/04 A2987 RMK AO2 P0007 T00400040
KSWW 131715Z AUTO 34016G23KT 5SM OVC017 04/03 A2987 RMK AO2 P0002 T00410026
KSWW 131655Z AUTO 34011G23KT 10SM OVC021 05/03 A2987 RMK AO2 LTG DSNT NE T00450026
KSWW 131635Z AUTO 34017G25KT 10SM OVC023 05/02 A2986 RMK AO2 T00470023
KSWW 131615Z AUTO 36016G24KT 10SM OVC023 05/02 A2985 RMK AO2 T00500022
KSWW 131555Z AUTO 35016G27KT 10SM OVC019 05/03 A2984 RMK AO2 T00500026
KSWW 131535Z AUTO 34018G25KT 10SM OVC017 05/03 A2982 RMK AO2 T00530032
KSWW 131515Z AUTO 35019G29KT 7SM OVC015 05/04 A2981 RMK AO2 LTG DSNT NE T00520036
KSWW 131455Z AUTO 35023G30KT 4SM OVC015 06/05 A2980 RMK AO2 P0001 60001 T00620047
KSWW 131435Z AUTO 34018G28KT 10SM OVC015 07/04 A2980 RMK AO2 T00700040
KSWW 131415Z AUTO 33019G30KT 10SM OVC015 07/04 A2979 RMK AO2 T00700037
KSWW 131355Z AUTO 33016G23KT 10SM OVC015 07/04 A2979 RMK AO2 T00670036
KSWW 131335Z AUTO 33021G30KT 10SM BKN017 OVC075 07/03 A2977 RMK AO2 T00660034
KSWW 131315Z AUTO 32018G30KT 10SM SCT017 SCT075 SCT095 07/03 A2976 RMK AO2 T00680027
KSWW 131255Z AUTO 30022G28KT 10SM SCT075 SCT095 09/03 A2973 RMK AO2 T00930025
KSWW 131235Z AUTO 27013G21KT 10SM SCT095 10/05 A2973 RMK AO2 T00980050
KSWW 131215Z AUTO 26010KT 10SM BKN095 09/06 A2971 RMK AO2 T00900061
KSWW 131155Z AUTO 24011KT 10SM CLR 09/06 A2970 RMK AO2 T00890063 10112 20089
KSWW 131135Z AUTO 23012KT 10SM CLR 10/06 A2968 RMK AO2 T00960064
KSWW 131115Z AUTO 23013KT 10SM CLR 10/07 A2968 RMK AO2 T01010065
KSWW 131055Z AUTO 23014KT 10SM CLR 10/07 A2968 RMK AO2 T00990067
KSWW 131035Z AUTO 22014KT 10SM CLR 10/07 A2968 RMK AO2 T00980070
KSWW 131015Z AUTO 21017G21KT 10SM CLR 10/07 A2968 RMK AO2 LTG DSNT E T00980070
KSWW 130955Z AUTO 21016KT 10SM CLR 10/07 A2968 RMK AO2 T01010071
KSWW 130935Z AUTO 21015KT 10SM CLR 10/07 A2969 RMK AO2 T01040070
KSWW 130915Z AUTO 21013KT 10SM CLR 11/07 A2970 RMK AO2 LTG DSNT E T01060071
KSWW 130855Z AUTO 20014G18KT 10SM CLR 11/07 A2970 RMK AO2 LTG DSNT NE AND E T01050071
KSWW 130835Z AUTO 20012KT 10SM CLR 11/07 A2970 RMK AO2 T01050071